createdAt,value
2023-03-26T00:08:12.352Z,8.9
2023-03-26T00:18:12.355Z,9.4
2023-03-26T00:28:12.444Z,9.4
2023-03-26T00:38:11.935Z,9
2023-03-26T00:48:12.107Z,9.5
2023-03-26T00:58:12.673Z,8.6
2023-03-26T01:08:12.527Z,8.8
2023-03-26T01:18:13.342Z,6.2
2023-03-26T01:28:13.696Z,8.2
2023-03-26T01:38:14.454Z,8.3
2023-03-26T01:48:14.585Z,8.3
2023-03-26T01:58:14.413Z,8.4
2023-03-26T02:08:14.892Z,9.3
2023-03-26T02:18:14.636Z,8.4
2023-03-26T02:28:15.237Z,9.1
2023-03-26T02:38:15.012Z,9.1
2023-03-26T02:48:15.089Z,9
2023-03-26T02:58:14.751Z,8.8
2023-03-26T03:08:08.269Z,7.7
2023-03-26T03:18:07.753Z,7.8
2023-03-26T03:28:07.979Z,5.7
2023-03-26T03:38:07.644Z,7.1
2023-03-26T03:48:08.002Z,6.3
2023-03-26T03:58:07.697Z,4.6
2023-03-26T04:08:08.842Z,6.7
2023-03-26T04:18:09.866Z,6.1
2023-03-26T04:28:11.158Z,6.5
2023-03-26T04:38:12.788Z,4.1
2023-03-26T04:48:13.748Z,6.3
2023-03-26T04:58:14.648Z,6.2
2023-03-26T05:08:22.768Z,-5
2023-03-26T05:18:37.651Z,9.1
2023-03-26T05:28:54.174Z,11.6
2023-03-26T05:39:10.542Z,12.1
2023-03-26T05:49:26.920Z,3.8
2023-03-26T05:59:42.578Z,13.8
2023-03-26T06:10:03.756Z,12.6
2023-03-26T06:20:18.560Z,-4.1
2023-03-26T06:30:36.099Z,10.1
2023-03-26T06:40:55.820Z,6.9
2023-03-26T06:51:14.831Z,15.1
2023-03-26T07:01:35.650Z,8.7
2023-03-26T07:11:54.933Z,0.7
2023-03-26T07:22:13.840Z,3.6
2023-03-26T07:32:33.979Z,13.3
2023-03-26T07:42:53.280Z,19
2023-03-26T07:53:12.908Z,20.3
2023-03-26T08:03:32.244Z,20.9
2023-03-26T08:13:51.574Z,22.3
2023-03-26T08:24:10.803Z,24.3
2023-03-26T08:34:30.072Z,25.9
2023-03-26T08:44:47.557Z,16.6
2023-03-26T08:55:05.476Z,19.8
2023-03-26T09:08:23.482Z,32.3
2023-03-26T09:18:42.208Z,21.4
2023-03-26T09:29:01.088Z,22.4
2023-03-26T09:39:19.986Z,23.6
2023-03-26T09:49:38.753Z,42
2023-03-26T09:59:58.239Z,25.7
2023-03-26T10:10:19.123Z,24.8
2023-03-26T10:20:40.098Z,26.7
2023-03-26T10:31:01.287Z,14.9
2023-03-26T10:41:22.211Z,26.9
2023-03-26T10:51:43.122Z,10.8
2023-03-26T11:02:02.746Z,8.8
2023-03-26T11:12:25.943Z,8.6
2023-03-26T11:22:39.026Z,6.6
2023-03-26T11:32:57.904Z,15.6
2023-03-26T11:43:14.385Z,16.2
2023-03-26T11:53:27.678Z,20.2
2023-03-26T12:03:36.980Z,17.8
2023-03-26T12:13:40.676Z,17.8
2023-03-26T12:23:43.422Z,16.9
2023-03-26T12:33:45.719Z,17.3
2023-03-26T12:47:46.280Z,16.4
2023-03-26T12:57:11.441Z,16.6
2023-03-26T13:07:04.522Z,15.6
2023-03-26T13:17:06.620Z,16.3
2023-03-26T13:27:08.901Z,16.4
2023-03-26T13:37:11.033Z,15.9
2023-03-26T13:47:13.244Z,15.6
2023-03-26T13:57:15.383Z,14.9
2023-03-26T14:07:17.286Z,14.7
2023-03-26T14:17:18.405Z,14.4
2023-03-26T14:27:21.311Z,14.4
2023-03-26T14:37:27.290Z,16.2
2023-03-26T14:47:23.226Z,16
2023-03-26T14:57:24.902Z,13.6
2023-03-26T15:08:09.929Z,12.9
2023-03-26T15:18:11.719Z,13.6
2023-03-26T15:28:12.171Z,13.3
2023-03-26T15:38:11.878Z,12.4
2023-03-26T15:48:12.308Z,15.4
2023-03-26T15:58:10.973Z,15.3
2023-03-26T16:08:11.582Z,14.6
2023-03-26T16:18:12.608Z,15.4
2023-03-26T16:28:12.984Z,11
2023-03-26T16:38:13.556Z,14.1
2023-03-26T16:48:15.697Z,10.8
2023-03-26T16:58:17.208Z,12.9
2023-03-26T17:08:17.744Z,11
2023-03-26T17:18:17.342Z,12
2023-03-26T17:28:17.350Z,13.1
2023-03-26T17:38:17.236Z,12.6
2023-03-26T17:48:17.350Z,12.6
2023-03-26T17:58:17.192Z,12.4
2023-03-26T18:08:17.573Z,12.1
2023-03-26T18:18:18.311Z,12.1
2023-03-26T18:28:16.820Z,11.9
2023-03-26T18:38:17.043Z,12.3
2023-03-26T18:48:16.760Z,11.1
2023-03-26T18:58:16.637Z,11.2
2023-03-26T19:08:16.038Z,11.3
2023-03-26T19:18:15.403Z,10.7
2023-03-26T19:28:15.007Z,10.7
2023-03-26T19:38:15.710Z,10.1
2023-03-26T19:48:15.195Z,11.3
2023-03-26T19:58:13.457Z,10.8
2023-03-26T20:08:13.444Z,10.3
2023-03-26T20:18:13.366Z,10.1
2023-03-26T20:28:13.100Z,9.8
2023-03-26T20:38:12.482Z,10.4
2023-03-26T20:48:12.012Z,10.1
2023-03-26T20:58:12.055Z,6.8
2023-03-26T21:08:07.742Z,9.4
2023-03-26T21:18:07.364Z,9.4
2023-03-26T21:28:06.950Z,8.8
2023-03-26T21:38:06.597Z,8.8
2023-03-26T21:48:06.464Z,8.9
2023-03-26T21:58:05.683Z,9.4
2023-03-26T22:08:07.031Z,9.2
2023-03-26T22:18:07.600Z,9
2023-03-26T22:28:08.454Z,8.8
2023-03-26T22:38:09.564Z,8.8
2023-03-26T22:48:10.386Z,8.6
2023-03-26T22:58:10.993Z,8.8
2023-03-26T23:08:11.143Z,8.1
2023-03-26T23:18:10.607Z,8.5
2023-03-26T23:28:10.373Z,5.9
2023-03-26T23:38:10.121Z,8.6
2023-03-26T23:48:09.399Z,7.9
2023-03-26T23:58:09.689Z,8.4
